createdAt,value
2017-10-17T00:00:28.008Z,0
2017-10-17T00:01:38.322Z,0
2017-10-17T00:02:47.957Z,0
2017-10-17T00:03:58.247Z,0
2017-10-17T00:05:08.561Z,0
2017-10-17T00:06:18.854Z,0
2017-10-17T00:07:29.152Z,0
2017-10-17T00:08:39.446Z,0
2017-10-17T00:09:49.740Z,0
2017-10-17T00:11:00.044Z,0
2017-10-17T00:12:10.017Z,0
2017-10-17T00:13:20.313Z,0
2017-10-17T00:14:30.616Z,0
2017-10-17T00:15:40.591Z,0
2017-10-17T00:16:50.888Z,0
2017-10-17T00:18:01.185Z,0
2017-10-17T00:19:11.487Z,0
2017-10-17T00:20:21.787Z,0
2017-10-17T00:21:31.757Z,0
2017-10-17T00:22:41.728Z,0
2017-10-17T00:23:52.025Z,0
2017-10-17T00:25:02.317Z,0
2017-10-17T00:26:12.301Z,0
2017-10-17T00:27:22.603Z,0
2017-10-17T00:28:31.926Z,0
2017-10-17T00:29:41.585Z,0
2017-10-17T00:30:51.898Z,0
2017-10-17T00:32:01.870Z,0
2017-10-17T00:33:12.205Z,0
2017-10-17T00:34:22.511Z,0
2017-10-17T00:35:32.482Z,0
2017-10-17T00:36:42.451Z,0
2017-10-17T00:37:52.752Z,0
2017-10-17T00:39:03.048Z,0
2017-10-17T00:40:13.357Z,0
2017-10-17T00:41:23.683Z,0
2017-10-17T00:42:33.998Z,0
2017-10-17T00:43:44.289Z,0
2017-10-17T00:44:54.584Z,0
2017-10-17T00:46:04.934Z,0
2017-10-17T00:47:14.898Z,0
2017-10-17T00:48:24.860Z,0
2017-10-17T00:49:35.152Z,0
2017-10-17T00:50:45.472Z,0
2017-10-17T00:51:55.779Z,0
2017-10-17T00:53:06.080Z,0
2017-10-17T00:54:16.382Z,0
2017-10-17T00:55:26.347Z,0
2017-10-17T00:56:36.318Z,0
2017-10-17T00:57:46.622Z,0
2017-10-17T00:58:56.592Z,0
2017-10-17T01:00:06.898Z,0
2017-10-17T01:01:17.192Z,0
2017-10-17T01:02:27.484Z,0
2017-10-17T01:03:37.785Z,0
2017-10-17T01:04:47.756Z,0
2017-10-17T01:05:58.100Z,0
2017-10-17T01:07:08.391Z,0
2017-10-17T01:08:18.358Z,0
2017-10-17T01:09:28.650Z,0
2017-10-17T01:10:38.293Z,0
2017-10-17T01:11:48.279Z,0
2017-10-17T01:12:58.583Z,0
2017-10-17T01:14:08.890Z,0
2017-10-17T01:15:19.171Z,0
2017-10-17T01:16:28.816Z,0
2017-10-17T01:17:39.104Z,0
2017-10-17T01:18:49.072Z,0
2017-10-17T01:19:59.041Z,0
2017-10-17T01:21:09.352Z,0
2017-10-17T01:22:19.669Z,0
2017-10-17T01:23:29.306Z,0
2017-10-17T01:24:39.284Z,0
2017-10-17T01:25:49.576Z,0
2017-10-17T01:26:59.876Z,0
2017-10-17T01:28:10.171Z,0
2017-10-17T01:29:20.146Z,0
2017-10-17T01:30:30.446Z,0
2017-10-17T01:31:40.735Z,0
2017-10-17T01:32:50.707Z,0
2017-10-17T01:34:01.008Z,0
2017-10-17T01:35:10.657Z,0
2017-10-17T01:36:21.198Z,0
2017-10-17T01:37:31.168Z,0
2017-10-17T01:38:41.157Z,0
2017-10-17T01:39:51.454Z,0
2017-10-17T01:41:01.748Z,0
2017-10-17T01:42:12.047Z,0
2017-10-17T01:43:22.371Z,0
2017-10-17T01:44:32.656Z,0
2017-10-17T01:45:42.619Z,0
2017-10-17T01:46:52.922Z,0
2017-10-17T01:48:03.219Z,0
2017-10-17T01:49:13.516Z,0
2017-10-17T01:50:23.158Z,0
2017-10-17T01:51:33.128Z,0
2017-10-17T01:52:43.411Z,0
2017-10-17T01:53:53.397Z,0
2017-10-17T01:55:03.046Z,0
2017-10-17T01:56:13.015Z,0
2017-10-17T01:57:22.975Z,0
2017-10-17T01:58:32.940Z,0
2017-10-17T01:59:43.243Z,0
2017-10-17T02:00:53.217Z,0
2017-10-17T02:02:03.183Z,0
2017-10-17T02:03:13.497Z,0
2017-10-17T02:04:23.783Z,0
2017-10-17T02:05:34.116Z,0
2017-10-17T02:06:44.420Z,0
2017-10-17T02:07:54.710Z,0
2017-10-17T02:09:05.000Z,0
2017-10-17T02:10:15.320Z,0
2017-10-17T02:11:24.965Z,0
2017-10-17T02:12:35.250Z,0
2017-10-17T02:13:45.550Z,0
2017-10-17T02:14:55.848Z,0
2017-10-17T02:16:05.811Z,0
2017-10-17T02:17:16.109Z,0
2017-10-17T02:18:26.404Z,0
2017-10-17T02:19:36.692Z,0
2017-10-17T02:20:46.654Z,0
2017-10-17T02:21:56.952Z,0
2017-10-17T02:23:07.243Z,0
2017-10-17T02:24:17.211Z,0
2017-10-17T02:25:27.495Z,0
2017-10-17T02:26:37.796Z,0
2017-10-17T02:27:47.757Z,0
2017-10-17T02:28:58.052Z,0
2017-10-17T02:30:08.339Z,0
2017-10-17T02:31:18.632Z,0
2017-10-17T02:32:28.928Z,0
2017-10-17T02:33:39.243Z,0
2017-10-17T02:34:49.577Z,0
2017-10-17T02:35:59.867Z,0
2017-10-17T02:37:10.181Z,0
2017-10-17T02:38:20.478Z,0
2017-10-17T02:39:30.776Z,0
2017-10-17T02:40:40.734Z,0
2017-10-17T02:41:50.718Z,0
2017-10-17T02:43:01.013Z,0
2017-10-17T02:44:11.303Z,0
2017-10-17T02:45:21.613Z,0
2017-10-17T02:46:31.907Z,0
2017-10-17T02:47:41.880Z,0
2017-10-17T02:48:52.174Z,0
2017-10-17T02:50:02.487Z,0
2017-10-17T02:51:12.458Z,0
2017-10-17T02:52:22.775Z,0
2017-10-17T02:53:32.753Z,0
2017-10-17T02:54:43.052Z,0
2017-10-17T02:55:53.019Z,0
2017-10-17T02:57:02.668Z,0
2017-10-17T02:58:12.645Z,0
2017-10-17T02:59:22.603Z,0
2017-10-17T03:00:32.914Z,0
2017-10-17T03:01:43.210Z,0
2017-10-17T03:02:53.515Z,0
2017-10-17T03:04:03.164Z,0
2017-10-17T03:05:13.129Z,0
2017-10-17T03:06:22.778Z,0
2017-10-17T03:07:33.067Z,0
2017-10-17T03:08:43.400Z,0
2017-10-17T03:09:53.698Z,0
2017-10-17T03:11:03.995Z,0
2017-10-17T03:12:13.954Z,0
2017-10-17T03:13:24.240Z,0
2017-10-17T03:14:34.547Z,0
2017-10-17T03:15:44.844Z,0
2017-10-17T03:16:54.815Z,0
2017-10-17T03:18:04.453Z,0
2017-10-17T03:19:14.421Z,0
2017-10-17T03:20:24.396Z,0
2017-10-17T03:21:34.697Z,0
2017-10-17T03:22:44.996Z,0
2017-10-17T03:23:54.965Z,0
2017-10-17T03:25:04.927Z,0
2017-10-17T03:26:14.903Z,0
2017-10-17T03:27:25.201Z,0
2017-10-17T03:28:35.508Z,0
2017-10-17T03:29:45.485Z,0
2017-10-17T03:30:55.808Z,0
2017-10-17T03:32:06.109Z,0
2017-10-17T03:33:16.405Z,0
2017-10-17T03:34:26.395Z,0
2017-10-17T03:35:36.391Z,0
2017-10-17T03:36:46.348Z,0
2017-10-17T03:37:56.642Z,0
2017-10-17T03:39:06.937Z,0
2017-10-17T03:40:17.233Z,0
2017-10-17T03:41:27.536Z,0
2017-10-17T03:42:37.825Z,0
2017-10-17T03:43:48.127Z,0
2017-10-17T03:44:58.099Z,0
2017-10-17T03:46:08.424Z,0
2017-10-17T03:47:18.709Z,0
2017-10-17T03:48:28.996Z,0
2017-10-17T03:49:39.296Z,0
2017-10-17T03:50:49.587Z,0
2017-10-17T03:51:59.882Z,0
2017-10-17T03:53:09.853Z,0
2017-10-17T03:54:19.836Z,0
2017-10-17T03:55:29.806Z,0
2017-10-17T03:56:40.100Z,0
2017-10-17T03:57:50.074Z,0
2017-10-17T03:59:00.376Z,0
2017-10-17T04:00:10.663Z,0
2017-10-17T04:01:20.967Z,0
2017-10-17T04:02:31.258Z,0
2017-10-17T04:03:41.558Z,0
2017-10-17T04:04:51.526Z,0
2017-10-17T04:06:01.836Z,0
2017-10-17T04:07:12.141Z,0
2017-10-17T04:08:22.441Z,0
2017-10-17T04:09:32.735Z,0
2017-10-17T04:10:43.032Z,0
2017-10-17T04:11:53.335Z,0
2017-10-17T04:13:03.294Z,0
2017-10-17T04:14:13.591Z,0
2017-10-17T04:15:23.885Z,0
2017-10-17T04:16:34.185Z,0
2017-10-17T04:17:44.491Z,0
2017-10-17T04:18:54.796Z,0
2017-10-17T04:20:04.447Z,0
2017-10-17T04:21:14.424Z,0
2017-10-17T04:22:24.721Z,0
2017-10-17T04:23:34.690Z,0
2017-10-17T04:24:44.658Z,0
2017-10-17T04:25:54.956Z,0
2017-10-17T04:27:04.932Z,0
2017-10-17T04:28:15.231Z,0
2017-10-17T04:29:25.522Z,0
2017-10-17T04:30:35.889Z,0
2017-10-17T04:31:46.193Z,0
2017-10-17T04:32:56.171Z,0
2017-10-17T04:34:06.504Z,0
2017-10-17T04:35:16.808Z,0
2017-10-17T04:36:27.151Z,0
2017-10-17T04:37:37.124Z,0
2017-10-17T04:38:47.416Z,0
2017-10-17T04:39:57.706Z,0
2017-10-17T04:41:08.009Z,0
2017-10-17T04:42:17.969Z,0
2017-10-17T04:43:27.949Z,0
2017-10-17T04:44:37.588Z,0
2017-10-17T04:45:47.883Z,0
2017-10-17T04:46:58.173Z,0
2017-10-17T04:48:08.679Z,0
2017-10-17T04:49:18.649Z,0
2017-10-17T04:50:28.948Z,0
2017-10-17T04:51:39.251Z,0
2017-10-17T04:52:49.217Z,0
2017-10-17T04:53:59.201Z,0
2017-10-17T04:55:09.173Z,0
2017-10-17T04:56:19.468Z,0
2017-10-17T04:57:29.464Z,0
2017-10-17T04:58:39.443Z,0
2017-10-17T04:59:49.730Z,4
2017-10-17T05:01:00.025Z,4
2017-10-17T05:02:10.332Z,0
2017-10-17T05:03:20.311Z,4
2017-10-17T05:04:30.279Z,4
2017-10-17T05:05:40.583Z,4
2017-10-17T05:06:50.877Z,4
2017-10-17T05:08:01.187Z,4
2017-10-17T05:09:11.488Z,8
2017-10-17T05:10:21.780Z,12
2017-10-17T05:11:32.084Z,16
2017-10-17T05:12:42.478Z,20
2017-10-17T05:13:52.464Z,24
2017-10-17T05:15:02.767Z,28
2017-10-17T05:16:13.058Z,32
2017-10-17T05:17:23.040Z,40
2017-10-17T05:18:33.344Z,48
2017-10-17T05:19:43.643Z,60
2017-10-17T05:20:53.613Z,76
2017-10-17T05:22:03.919Z,88
2017-10-17T05:23:14.214Z,108
2017-10-17T05:24:24.506Z,128
2017-10-17T05:25:34.478Z,152
2017-10-17T05:26:44.800Z,180
2017-10-17T05:27:55.096Z,200
2017-10-17T05:29:05.399Z,228
2017-10-17T05:30:15.707Z,260
2017-10-17T05:31:25.689Z,288
2017-10-17T05:32:35.987Z,320
2017-10-17T05:33:46.333Z,356
2017-10-17T05:34:56.312Z,388
2017-10-17T05:36:06.622Z,424
2017-10-17T05:37:16.929Z,460
2017-10-17T05:38:27.228Z,500
2017-10-17T05:39:37.563Z,536
2017-10-17T05:40:47.874Z,584
2017-10-17T05:41:57.848Z,640
2017-10-17T05:43:08.156Z,696
2017-10-17T05:44:18.131Z,756
2017-10-17T05:45:28.435Z,820
2017-10-17T05:46:38.409Z,888
2017-10-17T05:47:48.707Z,956
2017-10-17T05:48:59.006Z,1024
2017-10-17T05:50:09.300Z,1096
2017-10-17T05:51:18.949Z,1164
2017-10-17T05:52:29.272Z,1240
2017-10-17T05:53:39.574Z,1312
2017-10-17T05:54:49.870Z,1380
2017-10-17T05:56:00.172Z,1452
2017-10-17T05:57:10.482Z,1528
2017-10-17T05:58:20.452Z,1620
2017-10-17T05:59:30.441Z,1716
2017-10-17T06:00:40.752Z,1828
2017-10-17T06:01:50.720Z,1936
2017-10-17T06:03:01.023Z,2060
2017-10-17T06:04:11.322Z,2188
2017-10-17T06:05:21.653Z,2320
2017-10-17T06:06:31.615Z,2452
2017-10-17T06:07:41.914Z,2564
2017-10-17T06:08:52.197Z,2664
2017-10-17T06:10:02.507Z,2752
2017-10-17T06:11:12.165Z,2832
2017-10-17T06:12:22.484Z,2916
2017-10-17T06:13:32.794Z,3020
2017-10-17T06:14:42.779Z,3132
2017-10-17T06:15:53.079Z,3260
2017-10-17T06:17:03.403Z,3388
2017-10-17T06:18:13.712Z,3508
2017-10-17T06:19:23.687Z,3624
2017-10-17T06:20:33.661Z,3744
2017-10-17T06:21:43.309Z,3852
2017-10-17T06:22:53.655Z,3960
2017-10-17T06:24:03.956Z,4056
2017-10-17T06:25:14.260Z,4148
2017-10-17T06:26:24.568Z,4248
2017-10-17T06:27:34.867Z,4352
2017-10-17T06:28:45.173Z,4444
2017-10-17T06:29:55.484Z,4528
2017-10-17T06:31:05.832Z,4616
2017-10-17T06:32:16.136Z,4704
2017-10-17T06:33:26.433Z,4800
2017-10-17T06:34:36.419Z,4868
2017-10-17T06:35:46.396Z,4936
2017-10-17T06:36:56.374Z,5008
2017-10-17T06:38:06.910Z,5080
2017-10-17T06:39:17.220Z,5172
2017-10-17T06:40:27.542Z,5276
2017-10-17T06:41:37.850Z,5372
2017-10-17T06:42:48.140Z,5500
2017-10-17T06:43:58.753Z,5656
2017-10-17T06:45:08.436Z,5812
2017-10-17T06:46:18.788Z,5940
2017-10-17T06:47:28.816Z,6088
2017-10-17T06:48:39.125Z,6248
2017-10-17T06:49:49.092Z,6396
2017-10-17T06:50:59.421Z,6516
2017-10-17T06:52:09.428Z,6604
2017-10-17T06:53:19.736Z,6712
2017-10-17T06:54:30.052Z,6804
2017-10-17T06:55:40.387Z,6900
2017-10-17T06:56:50.696Z,6992
2017-10-17T06:58:00.681Z,7084
2017-10-17T06:59:11.003Z,7184
2017-10-17T07:00:21.336Z,7280
2017-10-17T07:01:31.639Z,7384
2017-10-17T07:02:41.634Z,7480
2017-10-17T07:03:51.936Z,7592
2017-10-17T07:05:01.911Z,7692
2017-10-17T07:06:12.437Z,7788
2017-10-17T07:07:22.415Z,7876
2017-10-17T07:08:32.732Z,7972
2017-10-17T07:09:43.040Z,8068
2017-10-17T07:10:53.388Z,8160
2017-10-17T07:12:03.731Z,8256
2017-10-17T07:13:14.041Z,8344
2017-10-17T07:14:24.029Z,8432
2017-10-17T07:15:34.386Z,8524
2017-10-17T07:16:44.709Z,8604
2017-10-17T07:17:54.713Z,8696
2017-10-17T07:19:04.719Z,8772
2017-10-17T07:20:15.080Z,8880
2017-10-17T07:21:25.420Z,8948
2017-10-17T07:22:35.739Z,8988
2017-10-17T07:23:45.741Z,9048
2017-10-17T07:24:56.070Z,9104
2017-10-17T07:26:06.379Z,9160
2017-10-17T07:27:16.695Z,9220
2017-10-17T07:28:26.696Z,9288
2017-10-17T07:29:37.003Z,9352
2017-10-17T07:30:46.977Z,9420
2017-10-17T07:31:57.276Z,9480
2017-10-17T07:33:07.601Z,9560
2017-10-17T07:34:17.910Z,9636
2017-10-17T07:35:27.913Z,9708
2017-10-17T07:36:38.221Z,9788
2017-10-17T07:37:48.536Z,9876
2017-10-17T07:38:58.835Z,9968
2017-10-17T07:40:09.149Z,10048
2017-10-17T07:41:19.445Z,10132
2017-10-17T07:42:29.438Z,10212
2017-10-17T07:43:39.746Z,10288
2017-10-17T07:44:50.067Z,10384
2017-10-17T07:46:00.387Z,10848
2017-10-17T07:47:10.688Z,12200
2017-10-17T07:48:20.998Z,14260
2017-10-17T07:49:31.001Z,15872
2017-10-17T07:50:40.684Z,16192
2017-10-17T07:51:51.266Z,16416
2017-10-17T07:53:01.292Z,16156
2017-10-17T07:54:11.337Z,16384
2017-10-17T07:55:21.356Z,17376
2017-10-17T07:56:31.356Z,17984
2017-10-17T07:57:41.386Z,18592
2017-10-17T07:58:51.746Z,18784
2017-10-17T08:00:01.419Z,18656
2017-10-17T08:01:11.767Z,19552
2017-10-17T08:02:21.806Z,20480
2017-10-17T08:03:32.153Z,20032
2017-10-17T08:04:42.521Z,20960
2017-10-17T08:05:52.510Z,20992
2017-10-17T08:07:02.521Z,21760
2017-10-17T08:08:12.882Z,22368
2017-10-17T08:09:23.459Z,23104
2017-10-17T08:10:33.755Z,22368
2017-10-17T08:11:43.744Z,22528
2017-10-17T08:12:53.444Z,24384
2017-10-17T08:14:03.447Z,25088
2017-10-17T08:15:13.762Z,25344
2017-10-17T08:16:24.088Z,26080
2017-10-17T08:17:34.115Z,26048
2017-10-17T08:18:44.138Z,27072
2017-10-17T08:19:54.156Z,28064
2017-10-17T08:21:04.479Z,27616
2017-10-17T08:22:14.828Z,28000
2017-10-17T08:23:25.152Z,28864
2017-10-17T08:24:35.497Z,29472
2017-10-17T08:25:45.825Z,30560
2017-10-17T08:26:56.152Z,30144
2017-10-17T08:28:06.468Z,29920
2017-10-17T08:29:17.038Z,30304
2017-10-17T08:30:27.433Z,30720
2017-10-17T08:31:37.798Z,32000
2017-10-17T08:32:48.137Z,34208
2017-10-17T08:33:58.150Z,35168
2017-10-17T08:35:08.463Z,35328
2017-10-17T08:36:18.472Z,35904
2017-10-17T08:37:28.808Z,36480
2017-10-17T08:38:39.131Z,36576
2017-10-17T08:39:48.832Z,37472
2017-10-17T08:40:58.837Z,38176
2017-10-17T08:42:09.169Z,39616
2017-10-17T08:43:19.499Z,39616
2017-10-17T08:44:29.857Z,40128
2017-10-17T08:45:39.834Z,41120
2017-10-17T08:46:49.835Z,41120
2017-10-17T08:47:59.830Z,41408
2017-10-17T08:49:10.145Z,41344
2017-10-17T08:50:20.504Z,42112
2017-10-17T08:51:30.840Z,42048
2017-10-17T08:52:40.845Z,42400
2017-10-17T08:53:50.841Z,43136
2017-10-17T08:55:01.175Z,42336
2017-10-17T08:56:11.502Z,43072
2017-10-17T08:57:21.480Z,45216
2017-10-17T08:58:31.795Z,45856
2017-10-17T08:59:42.126Z,47392
2017-10-17T09:00:52.125Z,47520
2017-10-17T09:02:02.440Z,47872
2017-10-17T09:03:12.788Z,48416
2017-10-17T09:04:22.796Z,49376
2017-10-17T09:05:32.789Z,51520
2017-10-17T09:06:43.114Z,50720
2017-10-17T09:07:53.109Z,50080
2017-10-17T09:09:03.453Z,50624
2017-10-17T09:10:13.775Z,51968
2017-10-17T09:11:23.771Z,52992
2017-10-17T09:12:33.781Z,51904
2017-10-17T09:13:43.749Z,52128
2017-10-17T09:14:54.067Z,54816
2017-10-17T09:16:04.392Z,56544
2017-10-17T09:17:14.808Z,56512
2017-10-17T09:18:25.160Z,57920
2017-10-17T09:19:35.463Z,58816
2017-10-17T09:20:45.775Z,59936
2017-10-17T09:21:56.137Z,59520
2017-10-17T09:23:06.448Z,58496
2017-10-17T09:24:16.767Z,60096
2017-10-17T09:25:26.748Z,60576
2017-10-17T09:26:37.050Z,60128
2017-10-17T09:27:47.064Z,61568
2017-10-17T09:28:57.417Z,61024
2017-10-17T09:30:07.725Z,61280
2017-10-17T09:31:17.747Z,63264
2017-10-17T09:32:28.062Z,64896
2017-10-17T09:33:38.370Z,63968
2017-10-17T09:34:48.695Z,64512
2017-10-17T09:35:59.003Z,64032
2017-10-17T09:37:09.328Z,64544
2017-10-17T09:38:19.888Z,68576
2017-10-17T09:39:30.217Z,67968
2017-10-17T09:40:40.192Z,65248
2017-10-17T09:41:50.194Z,66688
2017-10-17T09:43:00.518Z,65792
2017-10-17T09:44:10.539Z,68352
2017-10-17T09:45:20.955Z,72544
2017-10-17T09:46:31.240Z,72256
2017-10-17T09:47:41.596Z,72480
2017-10-17T09:48:51.924Z,69600
2017-10-17T09:50:01.951Z,67744
2017-10-17T09:51:11.947Z,68736
2017-10-17T09:52:21.974Z,69248
2017-10-17T09:53:32.317Z,73696
2017-10-17T09:54:41.976Z,73536
2017-10-17T09:55:52.302Z,73408
2017-10-17T09:57:02.644Z,73568
2017-10-17T09:58:12.650Z,76256
2017-10-17T09:59:22.996Z,76736
2017-10-17T10:00:32.994Z,78528
2017-10-17T10:01:43.031Z,80256
2017-10-17T10:02:53.351Z,78144
2017-10-17T10:04:03.374Z,78592
2017-10-17T10:05:13.716Z,78304
2017-10-17T10:06:24.035Z,81280
2017-10-17T10:07:34.085Z,80576
2017-10-17T10:08:44.414Z,80064
2017-10-17T10:09:54.739Z,81248
2017-10-17T10:11:04.732Z,82592
2017-10-17T10:12:15.104Z,80064
2017-10-17T10:13:25.109Z,83296
2017-10-17T10:14:35.417Z,87104
2017-10-17T10:15:45.741Z,88128
2017-10-17T10:16:55.746Z,91072
2017-10-17T10:18:05.752Z,87328
2017-10-17T10:19:16.062Z,91488
2017-10-17T10:20:26.459Z,84736
2017-10-17T10:21:36.796Z,84000
2017-10-17T10:22:46.689Z,89728
2017-10-17T10:23:57.005Z,93536
2017-10-17T10:25:07.381Z,90944
2017-10-17T10:26:17.745Z,99584
2017-10-17T10:27:28.059Z,89184
2017-10-17T10:28:38.400Z,77344
2017-10-17T10:29:48.743Z,90816
2017-10-17T10:30:58.812Z,90784
2017-10-17T10:32:09.156Z,92096
2017-10-17T10:33:19.522Z,93152
2017-10-17T10:34:29.830Z,92640
2017-10-17T10:35:40.264Z,94944
2017-10-17T10:36:50.611Z,89344
2017-10-17T10:38:00.976Z,94688
2017-10-17T10:39:11.311Z,94080
2017-10-17T10:40:21.624Z,85120
2017-10-17T10:41:32.027Z,92000
2017-10-17T10:42:42.366Z,91072
2017-10-17T10:43:52.944Z,92096
2017-10-17T10:45:03.487Z,94976
2017-10-17T10:46:13.820Z,88032
2017-10-17T10:47:23.821Z,95552
2017-10-17T10:48:34.186Z,93504
2017-10-17T10:49:44.448Z,94848
2017-10-17T10:50:54.455Z,94240
2017-10-17T10:52:04.452Z,90432
2017-10-17T10:53:14.776Z,98560
2017-10-17T10:54:25.092Z,93440
2017-10-17T10:55:35.664Z,95072
2017-10-17T10:56:45.986Z,97536
2017-10-17T10:57:55.972Z,97888
2017-10-17T10:59:06.502Z,92192
2017-10-17T11:00:16.816Z,93824
2017-10-17T11:01:27.469Z,96224
2017-10-17T11:02:37.779Z,92224
2017-10-17T11:03:48.101Z,91904
2017-10-17T11:04:57.771Z,86400
2017-10-17T11:06:07.779Z,88384
2017-10-17T11:07:18.350Z,89568
2017-10-17T11:08:28.666Z,91840
2017-10-17T11:09:38.655Z,88544
2017-10-17T11:10:48.970Z,86048
2017-10-17T11:11:58.956Z,93920
2017-10-17T11:13:09.576Z,105536
2017-10-17T11:14:19.576Z,120736
2017-10-17T11:15:29.563Z,106944
2017-10-17T11:16:39.556Z,108768
2017-10-17T11:17:49.986Z,120448
2017-10-17T11:19:00.293Z,85056
2017-10-17T11:20:10.325Z,95808
2017-10-17T11:21:20.647Z,104704
2017-10-17T11:22:30.964Z,82752
2017-10-17T11:23:41.356Z,108928
2017-10-17T11:24:51.626Z,99936
2017-10-17T11:26:01.628Z,96128
2017-10-17T11:27:11.637Z,98848
2017-10-17T11:28:21.950Z,97056
2017-10-17T11:29:31.952Z,97312
2017-10-17T11:30:42.266Z,101344
2017-10-17T11:31:52.628Z,98176
2017-10-17T11:33:02.969Z,100480
2017-10-17T11:34:13.316Z,107104
2017-10-17T11:35:23.911Z,102912
2017-10-17T11:36:34.689Z,103776
2017-10-17T11:37:44.729Z,103104
2017-10-17T11:38:54.713Z,96928
2017-10-17T11:40:05.052Z,101504
2017-10-17T11:41:15.086Z,106400
2017-10-17T11:42:25.334Z,101504
2017-10-17T11:43:35.659Z,102848
2017-10-17T11:44:45.990Z,107872
2017-10-17T11:45:56.332Z,103712
2017-10-17T11:47:06.699Z,101184
2017-10-17T11:48:17.207Z,96704
2017-10-17T11:49:27.658Z,95904
2017-10-17T11:50:38.047Z,96768
2017-10-17T11:51:48.394Z,97440
2017-10-17T11:52:58.143Z,99264
2017-10-17T11:54:08.758Z,94624
2017-10-17T11:55:19.088Z,95584
2017-10-17T11:56:29.434Z,97600
2017-10-17T11:57:39.787Z,101952
2017-10-17T11:58:49.801Z,101248
2017-10-17T12:00:00.399Z,103232
2017-10-17T12:01:10.087Z,106464
2017-10-17T12:02:20.422Z,106304
2017-10-17T12:03:30.438Z,105984
2017-10-17T12:04:40.782Z,112768
2017-10-17T12:05:50.757Z,103680
2017-10-17T12:07:01.193Z,104064
2017-10-17T12:08:11.823Z,99168
2017-10-17T12:09:22.218Z,98496
2017-10-17T12:10:32.557Z,106944
2017-10-17T12:11:43.198Z,105440
2017-10-17T12:12:53.562Z,105952
2017-10-17T12:14:03.596Z,101504
2017-10-17T12:15:14.036Z,95808
2017-10-17T12:16:24.486Z,100928
2017-10-17T12:17:35.130Z,93664
2017-10-17T12:18:45.482Z,92256
2017-10-17T12:19:55.816Z,93312
2017-10-17T12:21:06.143Z,97248
2017-10-17T12:22:16.145Z,104896
2017-10-17T12:23:27.014Z,98016
2017-10-17T12:24:37.028Z,102144
2017-10-17T12:25:47.039Z,104256
2017-10-17T12:26:57.366Z,102752
2017-10-17T12:28:07.686Z,103968
2017-10-17T12:29:18.341Z,105248
2017-10-17T12:30:28.426Z,104224
2017-10-17T12:31:38.807Z,104416
2017-10-17T12:32:49.223Z,106240
2017-10-17T12:33:59.678Z,107168
2017-10-17T12:35:09.658Z,105056
2017-10-17T12:36:19.995Z,93440
2017-10-17T12:37:30.314Z,67648
2017-10-17T12:38:40.339Z,95616
2017-10-17T12:39:50.373Z,98880
2017-10-17T12:41:00.648Z,96320
2017-10-17T12:42:10.660Z,91104
2017-10-17T12:43:21.061Z,92768
2017-10-17T12:44:31.230Z,91360
2017-10-17T12:45:40.715Z,90400
2017-10-17T12:46:51.145Z,90304
2017-10-17T12:48:02.942Z,92928
2017-10-17T12:49:13.605Z,94592
2017-10-17T12:50:23.454Z,93728
2017-10-17T12:51:33.473Z,90752
2017-10-17T12:52:43.372Z,94688
2017-10-17T12:53:53.413Z,93824
2017-10-17T12:55:03.401Z,93312
2017-10-17T12:56:13.719Z,93632
2017-10-17T12:57:24.080Z,96576
2017-10-17T12:58:34.665Z,96832
2017-10-17T12:59:44.981Z,95200
2017-10-17T13:00:54.700Z,95552
2017-10-17T13:02:05.084Z,92704
2017-10-17T13:03:14.916Z,94560
2017-10-17T13:04:25.934Z,89856
2017-10-17T13:05:35.965Z,87360
2017-10-17T13:06:46.292Z,88064
2017-10-17T13:07:55.960Z,85152
2017-10-17T13:09:05.980Z,84928
2017-10-17T13:10:16.235Z,85664
2017-10-17T13:11:26.267Z,89280
2017-10-17T13:12:36.251Z,86976
2017-10-17T13:13:46.245Z,83904
2017-10-17T13:14:56.561Z,83552
2017-10-17T13:16:07.131Z,84192
2017-10-17T13:17:17.121Z,78656
2017-10-17T13:18:27.116Z,87040
2017-10-17T13:19:37.487Z,86080
2017-10-17T13:20:47.474Z,83616
2017-10-17T13:21:57.767Z,79072
2017-10-17T13:23:07.753Z,78784
2017-10-17T13:24:17.797Z,80320
2017-10-17T13:25:28.144Z,72032
2017-10-17T13:26:38.466Z,80576
2017-10-17T13:27:49.043Z,81664
2017-10-17T13:28:59.353Z,83584
2017-10-17T13:30:09.666Z,81984
2017-10-17T13:31:19.332Z,77024
2017-10-17T13:32:29.332Z,68512
2017-10-17T13:33:39.589Z,66656
2017-10-17T13:34:49.900Z,70048
2017-10-17T13:36:00.222Z,73312
2017-10-17T13:37:09.898Z,76864
2017-10-17T13:38:20.211Z,77856
2017-10-17T13:39:30.840Z,79232
2017-10-17T13:40:41.174Z,75840
2017-10-17T13:41:51.480Z,73152
2017-10-17T13:43:01.829Z,74400
2017-10-17T13:44:11.487Z,75264
2017-10-17T13:45:22.138Z,72704
2017-10-17T13:46:32.475Z,60320
2017-10-17T13:47:42.462Z,39520
2017-10-17T13:48:52.117Z,63680
2017-10-17T13:50:02.109Z,70784
2017-10-17T13:51:12.677Z,74624
2017-10-17T13:52:23.001Z,68544
2017-10-17T13:53:33.331Z,64352
2017-10-17T13:54:43.665Z,69504
2017-10-17T13:55:53.333Z,65984
2017-10-17T13:57:03.898Z,66400
2017-10-17T13:58:14.215Z,67872
2017-10-17T13:59:24.529Z,72320
2017-10-17T14:00:34.181Z,68032
2017-10-17T14:01:44.501Z,67264
2017-10-17T14:02:55.073Z,68992
2017-10-17T14:04:05.398Z,65728
2017-10-17T14:05:15.073Z,65792
2017-10-17T14:06:25.078Z,63904
2017-10-17T14:07:35.395Z,62720
2017-10-17T14:08:45.960Z,65184
2017-10-17T14:09:56.264Z,65248
2017-10-17T14:11:06.590Z,64160
2017-10-17T14:12:16.896Z,63264
2017-10-17T14:13:26.887Z,60736
2017-10-17T14:14:37.442Z,60256
2017-10-17T14:15:47.425Z,58048
2017-10-17T14:16:57.738Z,54464
2017-10-17T14:18:08.057Z,54368
2017-10-17T14:19:17.719Z,53504
2017-10-17T14:20:27.973Z,54208
2017-10-17T14:21:38.290Z,53856
2017-10-17T14:22:48.288Z,54080
2017-10-17T14:23:57.942Z,53472
2017-10-17T14:25:08.256Z,53440
2017-10-17T14:26:18.494Z,53568
2017-10-17T14:27:28.808Z,50240
2017-10-17T14:28:39.365Z,47968
2017-10-17T14:29:49.685Z,50720
2017-10-17T14:31:00.039Z,53216
2017-10-17T14:32:10.289Z,58240
2017-10-17T14:33:20.619Z,47872
2017-10-17T14:34:30.296Z,42976
2017-10-17T14:35:40.617Z,43456
2017-10-17T14:36:50.620Z,36224
2017-10-17T14:38:00.585Z,44128
2017-10-17T14:39:10.903Z,46944
2017-10-17T14:40:21.230Z,40160
2017-10-17T14:41:31.557Z,43552
2017-10-17T14:42:41.546Z,43136
2017-10-17T14:43:51.789Z,40064
2017-10-17T14:45:02.101Z,36960
2017-10-17T14:46:12.429Z,36640
2017-10-17T14:47:22.429Z,35040
2017-10-17T14:48:32.747Z,38048
2017-10-17T14:49:46.931Z,35680
2017-10-17T14:50:57.245Z,36160
2017-10-17T14:52:06.907Z,32832
2017-10-17T14:53:16.904Z,33696
2017-10-17T14:54:27.231Z,31552
2017-10-17T14:55:37.228Z,32576
2017-10-17T14:56:47.564Z,32224
2017-10-17T14:57:57.870Z,29312
2017-10-17T14:59:08.180Z,29920
2017-10-17T15:00:18.486Z,29184
2017-10-17T15:01:28.808Z,27808
2017-10-17T15:02:39.120Z,26528
2017-10-17T15:03:49.661Z,24896
2017-10-17T15:04:59.656Z,23424
2017-10-17T15:06:09.988Z,24384
2017-10-17T15:07:20.029Z,22496
2017-10-17T15:08:30.343Z,22304
2017-10-17T15:09:40.660Z,21504
2017-10-17T15:10:50.993Z,20512
2017-10-17T15:12:01.324Z,19520
2017-10-17T15:13:11.644Z,19264
2017-10-17T15:14:21.974Z,17888
2017-10-17T15:15:31.651Z,16544
2017-10-17T15:16:41.973Z,15840
2017-10-17T15:17:52.294Z,14880
2017-10-17T15:19:02.619Z,13952
2017-10-17T15:20:12.945Z,13056
2017-10-17T15:21:23.258Z,12512
2017-10-17T15:22:33.579Z,11676
2017-10-17T15:23:43.900Z,10872
2017-10-17T15:24:53.558Z,9748
2017-10-17T15:26:03.893Z,8856
2017-10-17T15:27:14.209Z,8244
2017-10-17T15:28:24.524Z,7948
2017-10-17T15:29:34.544Z,7272
2017-10-17T15:30:44.559Z,6828
2017-10-17T15:31:54.887Z,6236
2017-10-17T15:33:05.214Z,5692
2017-10-17T15:34:15.226Z,5344
2017-10-17T15:35:25.547Z,4960
2017-10-17T15:36:35.549Z,4672
2017-10-17T15:37:45.902Z,4360
2017-10-17T15:38:56.229Z,4052
2017-10-17T15:40:06.542Z,3804
2017-10-17T15:41:16.857Z,3536
2017-10-17T15:42:26.872Z,3308
2017-10-17T15:43:37.178Z,3076
2017-10-17T15:44:47.475Z,2884
2017-10-17T15:45:57.467Z,2700
2017-10-17T15:47:07.776Z,2528
2017-10-17T15:48:18.100Z,2352
2017-10-17T15:49:28.409Z,2196